createdAt,value
2023-02-14T11:37:34.461Z,5.40
2023-02-14T11:47:47.599Z,22.40
2023-02-14T11:52:57.172Z,24.10
2023-02-14T11:58:03.262Z,24.80
2023-02-14T12:03:06.986Z,25.60
2023-02-14T12:08:10.296Z,25.60
2023-02-14T12:13:12.252Z,26.00
2023-02-14T12:18:23.439Z,26.00
2023-02-14T12:23:42.099Z,24.90
2023-02-14T12:29:14.058Z,23.90
2023-02-14T12:34:19.045Z,23.60
2023-02-14T12:40:02.380Z,24.00
2023-02-14T12:45:22.565Z,22.20
2023-02-14T12:50:46.566Z,20.10
2023-02-14T12:56:10.829Z,20.10
2023-02-14T13:01:59.648Z,19.00
2023-02-14T13:07:26.135Z,19.80
2023-02-14T13:12:59.084Z,20.20
2023-02-14T13:18:18.624Z,20.20
2023-02-14T13:23:47.979Z,20.20
2023-02-14T13:28:57.709Z,20.30
2023-02-14T13:34:22.553Z,21.70
2023-02-14T13:39:39.115Z,22.80
2023-02-14T13:44:50.237Z,19.90
2023-02-14T16:24:51.056Z,17.80
2023-02-14T16:29:53.418Z,11.90
2023-02-14T16:34:55.438Z,11.10
2023-02-14T16:39:59.906Z,10.80
2023-02-14T16:45:02.160Z,10.60
2023-02-14T16:50:04.311Z,10.60
2023-02-14T16:55:15.342Z,10.00
2023-02-14T17:00:17.976Z,9.90
2023-02-14T17:05:20.469Z,10.10
2023-02-14T17:10:22.694Z,9.80
2023-02-14T17:15:27.380Z,9.50
2023-02-14T17:20:31.109Z,9.30
2023-02-14T17:25:33.216Z,9.20
2023-02-14T17:30:38.284Z,9.30
2023-02-14T17:35:40.332Z,9.10
2023-02-14T17:40:42.618Z,9.00
2023-02-14T17:45:44.672Z,8.90
2023-02-14T17:50:46.705Z,8.80
2023-02-14T17:55:49.398Z,8.70
2023-02-14T18:00:51.869Z,8.70
2023-02-14T18:06:00.864Z,9.10
2023-02-14T18:11:11.507Z,9.30
2023-02-14T18:16:19.444Z,9.30
2023-02-14T18:21:24.543Z,9.40
2023-02-14T18:26:27.020Z,9.40
2023-02-14T18:31:29.396Z,9.40
2023-02-14T18:36:32.388Z,9.50
2023-02-14T18:41:35.430Z,9.10
2023-02-14T18:46:37.705Z,9.00
2023-02-14T18:51:39.848Z,9.40
2023-02-14T18:56:42.162Z,9.40
2023-02-14T19:01:45.804Z,9.10
2023-02-14T19:06:49.585Z,8.30
2023-02-14T19:11:51.949Z,8.40
2023-02-14T19:16:55.465Z,8.70
2023-02-14T19:22:01.562Z,8.60
2023-02-14T19:27:03.872Z,8.50
2023-02-14T19:32:06.257Z,8.20
2023-02-14T19:37:08.555Z,8.50
2023-02-14T19:42:10.676Z,8.60
2023-02-14T19:47:27.180Z,8.50
2023-02-14T19:52:33.233Z,8.00
2023-02-14T19:57:35.244Z,7.60
2023-02-14T20:02:37.314Z,7.90
2023-02-14T20:07:39.336Z,7.70
2023-02-14T20:12:41.807Z,7.60
2023-02-14T20:17:43.909Z,7.80
2023-02-14T20:22:45.927Z,7.10
2023-02-14T20:27:48.031Z,6.70
2023-02-14T20:32:51.783Z,6.90
2023-02-14T20:37:55.075Z,7.10
2023-02-14T20:42:57.060Z,7.10
2023-02-14T20:48:03.375Z,6.90
2023-02-14T20:53:05.465Z,6.90
2023-02-14T20:58:08.035Z,6.90
2023-02-14T21:03:10.257Z,6.70
2023-02-14T21:08:12.266Z,7.00
2023-02-14T21:13:14.343Z,7.10
2023-02-14T21:18:16.816Z,7.10
2023-02-14T21:23:19.058Z,7.20
2023-02-14T21:28:21.351Z,7.10
2023-02-14T21:33:25.428Z,7.40
2023-02-14T21:38:28.429Z,7.50
2023-02-14T21:43:35.719Z,7.80
2023-02-14T21:48:58.805Z,7.50
2023-02-14T21:54:00.948Z,6.70
2023-02-14T21:59:03.206Z,7.30
2023-02-14T22:04:09.219Z,7.10
2023-02-14T22:09:17.592Z,7.10
2023-02-14T22:14:20.021Z,7.10
2023-02-14T22:19:22.993Z,7.20
2023-02-14T22:24:25.482Z,7.00
2023-02-14T22:29:29.103Z,6.30
2023-02-14T22:34:31.519Z,6.00
2023-02-14T22:39:33.606Z,6.00
2023-02-14T22:44:35.685Z,5.90
2023-02-14T22:49:37.839Z,5.80
2023-02-14T22:59:42.529Z,5.70
2023-02-14T23:04:44.838Z,5.60
2023-02-14T23:09:48.655Z,5.70
2023-02-14T23:51:05.453Z,5.80
